Flight Track Log - Related Links

Times and Time Zones

All times are in EST time to prevent confusion due to time zone crossing. See the UPS376 flight status page for this flight to view local times or setup timezone preferences in your user account.

Time Position Orientation Groundspeed Altitude Reporting Facility
EST Latitude Longitude Course Direction KTS MPH feet Rate Location/Type
Sat 11:00:46 AM 25.5736 -80.2267 202° Southwest 284 327 9,200  Level Miami Center
Sat 11:01:31 AM 25.5189 -80.2506 202° Southwest 288 331 11,800 3,491 Climbing Miami Center
Sat 11:01:41 AM 25.5039 -80.2617 214° Southwest 302 348 12,400 3,100 Climbing Miami Center
Sat 11:02:31 AM 25.4447 -80.2897 203° Southwest 342 394 14,900 1,964 Climbing Miami Center
Sat 11:03:31 AM 25.3517 -80.3378 205° Southwest 348 400 16,000 1,900 Climbing Miami Center
Sat 11:04:31 AM 25.2631 -80.3811 204° Southwest 358 412 18,700 3,050 Climbing Miami Center
Sat 11:05:31 AM 25.1656 -80.4311 205° Southwest 370 426 22,100 3,450 Climbing Miami Center
Sat 11:06:31 AM 25.0658 -80.4969 211° Southwest 395 455 25,600 3,250 Climbing Miami Center
Sat 11:07:31 AM 24.9661 -80.5653 212° Southwest 415 478 28,600 2,850 Climbing Miami Center
Sat 11:08:31 AM 24.8639 -80.6353 212° Southwest 430 495 31,300 2,950 Climbing Miami Center
Sat 11:09:31 AM 24.7642 -80.7031 212° Southwest 435 501 34,500 1,800 Climbing Miami Center
Sat 11:10:31 AM 24.6661 -80.7733 213° Southwest 430 495 34,900 250 Climbing Miami Center
Sat 11:11:31 AM 24.5683 -80.8386 211° Southwest 424 488 35,000 50 Climbing Miami Center
Sat 11:12:31 AM 24.4683 -80.9039 211° Southwest 418 481 35,000  Level Miami Center
Sat 11:13:31 AM 24.3706 -80.9692 211° Southwest 418 481 35,000  Level Miami Center
Sat 11:14:31 AM 24.2706 -81.0367 212° Southwest 418 481 35,000  Level Miami Center
Sat 11:15:31 AM 24.1725 -81.0992 210° Southwest 418 481 35,000  Level Miami Center
Sat 11:16:31 AM 24.0767 -81.1711 214° Southwest 418 481 35,000  Level Miami Center
Sat 11:18:00 AM 23.9389 -81.2656 216° Southwest  Level FlightAware Approximate
Sat 11:25:00 AM 23.3142 -81.7619 216° Southwest  Level FlightAware Approximate
Sat 11:26:00 AM 23.2248 -81.8324 216° Southwest  Level FlightAware Approximate
Sat 11:27:00 AM 23.1354 -81.9028 216° Southwest  Level FlightAware Approximate
Sat 11:28:00 AM 23.0460 -81.9732 216° Southwest  Level FlightAware Approximate
Sat 11:29:00 AM 22.9565 -82.0434 216° Southwest  Level FlightAware Approximate
Sat 11:30:00 AM 22.8670 -82.1135 216° Southwest  Level FlightAware Approximate
Sat 11:31:00 AM 22.7775 -82.1836 216° Southwest  Level FlightAware Approximate
Sat 11:32:00 AM 22.6880 -82.2535 216° Southwest  Level FlightAware Approximate
Sat 11:33:00 AM 22.5984 -82.3234 216° Southwest  Level FlightAware Approximate
Sat 11:34:00 AM 22.5088 -82.3932 216° Southwest  Level FlightAware Approximate
Sat 11:35:00 AM 22.4199 -82.4640 216° Southwest  Level FlightAware Approximate
Sat 11:36:00 AM 22.3310 -82.5348 216° Southwest  Level FlightAware Approximate
Sat 11:37:00 AM 22.2421 -82.6056 216° Southwest  Level FlightAware Approximate
Sat 11:38:00 AM 22.1532 -82.6762 216° Southwest  Level FlightAware Approximate
Sat 11:39:00 AM 22.0643 -82.7468 216° Southwest  Level FlightAware Approximate
Sat 11:40:00 AM 21.9753 -82.8172 216° Southwest  Level FlightAware Approximate
Sat 11:41:00 AM 21.8863 -82.8876 216° Southwest  Level FlightAware Approximate
Sat 11:42:00 AM 21.7973 -82.9579 216° Southwest  Level FlightAware Approximate
Sat 11:43:00 AM 21.7082 -83.0281 216° Southwest  Level FlightAware Approximate
Sat 11:44:00 AM 21.6191 -83.0983 216° Southwest  Level FlightAware Approximate
Sat 11:45:00 AM 21.5300 -83.1683 216° Southwest  Level FlightAware Approximate
Sat 11:46:00 AM 21.4409 -83.2382 216° Southwest  Level FlightAware Approximate
Sat 11:47:00 AM 21.3510 -83.3069 214° Southwest  Level FlightAware Approximate
Sat 11:48:00 AM 21.2596 -83.3734 214° Southwest  Level FlightAware Approximate
Sat 11:49:00 AM 21.1690 -83.4410 216° Southwest  Level FlightAware Approximate
Sat 11:50:00 AM 21.0799 -83.5109 216° Southwest  Level FlightAware Approximate
Sat 11:51:00 AM 20.9908 -83.5806 216° Southwest  Level FlightAware Approximate
Sat 11:52:00 AM 20.9016 -83.6503 216° Southwest  Level FlightAware Approximate
Sat 11:53:00 AM 20.8125 -83.7199 216° Southwest  Level FlightAware Approximate
Sat 11:54:00 AM 20.7231 -83.7892 216° Southwest  Level FlightAware Approximate
Sat 11:55:00 AM 20.6336 -83.8583 216° Southwest  Level FlightAware Approximate
Sat 11:56:00 AM 20.5442 -83.9274 216° Southwest  Level FlightAware Approximate
Sat 11:57:00 AM 20.4547 -83.9964 216° Southwest  Level FlightAware Approximate
Sat 11:58:00 AM 20.3668 -84.0673 215° Southwest  Level FlightAware Approximate
Sat 11:59:00 AM 20.2769 -84.1356 215° Southwest  Level FlightAware Approximate
Sat 12:00:00 PM 20.1869 -84.2038 215° Southwest  Level FlightAware Approximate
Sat 12:01:00 PM 20.0970 -84.2719 215° Southwest  Level FlightAware Approximate
Sat 12:02:00 PM 20.0070 -84.3399 215° Southwest  Level FlightAware Approximate
Sat 12:03:00 PM 19.9170 -84.4079 215° Southwest  Level FlightAware Approximate
Sat 12:04:00 PM 19.8269 -84.4758 215° Southwest  Level FlightAware Approximate
Sat 12:05:00 PM 19.7369 -84.5436 215° Southwest  Level FlightAware Approximate
Sat 12:06:00 PM 19.6468 -84.6113 215° Southwest  Level FlightAware Approximate
Sat 12:07:00 PM 19.5567 -84.6790 215° Southwest  Level FlightAware Approximate
Sat 12:08:00 PM 19.4665 -84.7466 215° Southwest  Level FlightAware Approximate
Sat 12:09:00 PM 19.3764 -84.8141 215° Southwest  Level FlightAware Approximate
Sat 12:10:00 PM 19.2862 -84.8815 215° Southwest  Level FlightAware Approximate
Sat 12:11:00 PM 19.1959 -84.9489 215° Southwest  Level FlightAware Approximate
Sat 12:12:00 PM 19.1057 -85.0162 215° Southwest  Level FlightAware Approximate
Sat 12:13:00 PM 19.0154 -85.0834 215° Southwest  Level FlightAware Approximate
Sat 12:14:00 PM 18.9252 -85.1505 215° Southwest  Level FlightAware Approximate
Sat 12:15:00 PM 18.8349 -85.2176 215° Southwest  Level FlightAware Approximate
Sat 12:16:00 PM 18.7445 -85.2846 215° Southwest  Level FlightAware Approximate
Sat 12:17:00 PM 18.6542 -85.3515 215° Southwest  Level FlightAware Approximate
Sat 12:18:00 PM 18.5638 -85.4183 215° Southwest  Level FlightAware Approximate
Sat 12:19:00 PM 18.4734 -85.4851 215° Southwest  Level FlightAware Approximate
Sat 12:20:00 PM 18.3829 -85.5518 215° Southwest  Level FlightAware Approximate
Sat 12:21:00 PM 18.2925 -85.6185 215° Southwest  Level FlightAware Approximate
Sat 12:22:00 PM 18.2020 -85.6850 215° Southwest  Level FlightAware Approximate
Sat 12:23:00 PM 18.1115 -85.7515 215° Southwest  Level FlightAware Approximate
Sat 12:24:00 PM 18.0210 -85.8180 215° Southwest  Level FlightAware Approximate
Sat 12:25:00 PM 17.9304 -85.8843 215° Southwest  Level FlightAware Approximate
Sat 12:26:00 PM 17.8399 -85.9506 215° Southwest  Level FlightAware Approximate
Sat 12:27:00 PM 17.7493 -86.0169 215° Southwest  Level FlightAware Approximate
Sat 12:28:00 PM 17.6587 -86.0830 215° Southwest  Level FlightAware Approximate
Sat 12:29:00 PM 17.5680 -86.1491 215° Southwest  Level FlightAware Approximate
Sat 12:30:00 PM 17.4774 -86.2151 215° Southwest  Level FlightAware Approximate
Sat 12:31:00 PM 17.3867 -86.2811 215° Southwest  Level FlightAware Approximate
Sat 12:32:00 PM 17.2960 -86.3470 215° Southwest  Level FlightAware Approximate
Sat 12:33:00 PM 17.2053 -86.4128 215° Southwest  Level FlightAware Approximate
Sat 12:34:00 PM 17.0969 -86.4304 187° South  Level FlightAware Approximate
Sat 12:35:00 PM 16.9874 -86.4450 187° South  Level FlightAware Approximate
Sat 12:36:00 PM 16.8786 -86.4643 191° South  Level FlightAware Approximate
Sat 12:37:00 PM 16.7687 -86.4742 184° South  Level FlightAware Approximate
Sat 12:38:00 PM 16.6586 -86.4827 184° South  Level FlightAware Approximate
Sat 12:39:00 PM 16.5488 -86.4946 186° South  Level FlightAware Approximate
Sat 12:40:00 PM 16.4404 -86.5149 193° South  Level FlightAware Approximate
Sat 12:41:00 PM 16.3302 -86.5167 180° South  Level FlightAware Approximate
Sat 12:42:00 PM 16.2623 -86.5903 237° Southwest  Level FlightAware Approximate
Sat 12:43:00 PM 16.2021 -86.6866 237° Southwest  Level FlightAware Approximate
Sat 12:44:00 PM 16.1419 -86.7830 237° Southwest  Level FlightAware Approximate
Sat 12:45:00 PM 16.0829 -86.8800 239° Southwest  Level FlightAware Approximate
Sat 12:46:00 PM 16.0260 -86.9784 237° Southwest  Level FlightAware Approximate
Sat 12:47:00 PM 15.9659 -87.0747 237° Southwest  Level FlightAware Approximate
Sat 12:48:00 PM 15.9057 -87.1710 237° Southwest  Level FlightAware Approximate
Sat 12:49:00 PM 15.8461 -87.2676 238° Southwest  Level FlightAware Approximate
Sat 12:50:00 PM 15.7914 -87.3671 243° Southwest  Level FlightAware Approximate
Sat 12:51:00 PM 15.7322 -87.4638 237° Southwest  Level FlightAware Approximate
Sat 12:52:00 PM 15.6713 -87.5594 237° Southwest  Level FlightAware Approximate
Sat 12:53:00 PM 15.6086 -87.6538 235° Southwest  Level FlightAware Approximate
Sat 12:54:00 PM 15.5498 -87.7505 243° Southwest  Level FlightAware Approximate
Sat 12:55:00 PM 15.4938 -87.8491 238° Southwest  Level FlightAware Approximate
Sat 12:56:00 PM 15.4526 -87.9236 270° West  Level Estimated
Sat 12:57:00 PM 15.4526 -87.9236 270° West  Level Estimated
Sat 12:58:00 PM 15.4526 -87.9236 270° West  Level Estimated
Sat 12:59:00 PM 15.4526 -87.9236 270° West  Level Estimated
Sat 01:00:00 PM 15.4526 -87.9236 270° West  Level Estimated
Sat 01:01:00 PM 15.4526 -87.9236 270° West  Level Estimated
Sat 01:02:00 PM 15.4526 -87.9236 270° West  Level Estimated
Sat 01:03:00 PM 15.4526 -87.9236 270° West  Level Estimated
Sat 01:04:00 PM 15.4526 -87.9236 270° West  Level Estimated
Sat 01:05:00 PM 15.4526 -87.9236 270° West  Level Estimated
Sat 01:06:00 PM 15.4526 -87.9236 270° West  Level Estimated
Sat 01:07:00 PM 15.4526 -87.9236 270° West  Level Estimated
Sat 01:08:00 PM 15.4526 -87.9236 270° West  Level Estimated
Sat 01:09:00 PM 15.4526 -87.9236 270° West  Level Estimated
Sat 01:10:00 PM 15.4526 -87.9236 270° West  Level Estimated

Login

Don't have an account? Register now (free) for customized features, flight alerts, and more!